createdAt,value
2018-04-23T00:00:59.629Z,8.00
2018-04-23T00:01:59.873Z,8.50
2018-04-23T00:03:00.119Z,7.70
2018-04-23T00:04:00.363Z,7.80
2018-04-23T00:05:00.607Z,8.60
2018-04-23T00:06:00.899Z,7.90
2018-04-23T00:07:01.096Z,8.90
2018-04-23T00:08:01.340Z,7.90
2018-04-23T00:09:01.585Z,8.20
2018-04-23T00:10:01.830Z,8.00
2018-04-23T00:11:02.073Z,8.60
2018-04-23T00:12:02.317Z,8.20
2018-04-23T00:13:02.586Z,8.60
2018-04-23T00:14:02.806Z,8.20
2018-04-23T00:15:03.051Z,8.30
2018-04-23T00:16:03.295Z,8.20
2018-04-23T00:17:03.542Z,7.80
2018-04-23T00:18:03.782Z,8.50
2018-04-23T00:19:04.027Z,7.60
2018-04-23T00:20:04.272Z,7.80
2018-04-23T00:21:04.517Z,7.80
2018-04-23T00:22:04.763Z,7.80
2018-04-23T00:23:05.048Z,8.20
2018-04-23T00:24:05.253Z,7.60
2018-04-23T00:25:05.496Z,8.00
2018-04-23T00:26:05.741Z,8.50
2018-04-23T00:27:05.989Z,7.90
2018-04-23T00:28:06.231Z,7.60
2018-04-23T00:29:06.478Z,7.50
2018-04-23T00:30:06.720Z,8.10
2018-04-23T00:31:06.963Z,7.40
2018-04-23T00:32:07.207Z,6.90
2018-04-23T00:33:07.453Z,7.30
2018-04-23T00:34:07.696Z,6.70
2018-04-23T00:35:07.939Z,7.00
2018-04-23T00:36:08.184Z,7.20
2018-04-23T00:37:08.428Z,7.00
2018-04-23T00:38:08.672Z,6.60
2018-04-23T00:39:08.915Z,7.50
2018-04-23T00:40:09.158Z,6.70
2018-04-23T00:41:09.402Z,6.00
2018-04-23T00:42:09.646Z,7.40
2018-04-23T00:43:09.890Z,7.10
2018-04-23T00:44:10.135Z,7.30
2018-04-23T00:45:10.380Z,6.60
2018-04-23T00:46:10.624Z,6.40
2018-04-23T00:47:10.868Z,6.20
2018-04-23T00:48:11.113Z,6.60
2018-04-23T00:49:11.353Z,6.50
2018-04-23T00:50:11.600Z,6.30
2018-04-23T00:51:11.843Z,6.80
2018-04-23T00:52:12.083Z,6.90
2018-04-23T00:53:12.335Z,6.10
2018-04-23T00:54:12.571Z,6.10
2018-04-23T00:55:12.824Z,6.50
2018-04-23T00:56:13.061Z,6.70
2018-04-23T00:57:13.302Z,7.00
2018-04-23T00:58:13.545Z,6.80
2018-04-23T00:59:13.789Z,6.70
2018-04-23T01:00:14.032Z,7.20
2018-04-23T01:01:14.277Z,7.10
2018-04-23T01:02:14.521Z,7.20
2018-04-23T01:03:14.765Z,6.50
2018-04-23T01:04:15.006Z,6.10
2018-04-23T01:05:15.252Z,6.70
2018-04-23T01:06:15.494Z,6.10
2018-04-23T01:07:15.738Z,6.50
2018-04-23T01:08:15.985Z,6.30
2018-04-23T01:09:16.224Z,6.90
2018-04-23T01:10:16.469Z,7.50
2018-04-23T01:11:16.714Z,6.30
2018-04-23T01:12:16.957Z,6.90
2018-04-23T01:13:17.201Z,6.70
2018-04-23T01:14:17.443Z,6.30
2018-04-23T01:15:17.687Z,6.50
2018-04-23T01:16:17.930Z,6.60
2018-04-23T01:17:18.174Z,6.70
2018-04-23T01:18:18.424Z,6.70
2018-04-23T01:19:18.661Z,6.70
2018-04-23T01:20:18.907Z,7.10
2018-04-23T01:21:19.150Z,6.60
2018-04-23T01:22:19.394Z,6.90
2018-04-23T01:23:19.641Z,7.10
2018-04-23T01:24:19.880Z,6.20
2018-04-23T01:25:20.124Z,7.20
2018-04-23T01:26:20.367Z,6.80
2018-04-23T01:27:20.609Z,7.40
2018-04-23T01:28:20.853Z,6.90
2018-04-23T01:29:21.096Z,7.20
2018-04-23T01:30:21.346Z,7.30
2018-04-23T01:31:21.582Z,7.00
2018-04-23T01:32:21.825Z,6.50
2018-04-23T01:33:22.069Z,6.60
2018-04-23T01:34:22.312Z,6.90
2018-04-23T01:35:22.558Z,7.00
2018-04-23T01:36:22.800Z,6.60
2018-04-23T01:37:23.042Z,6.40
2018-04-23T01:38:23.286Z,6.50
2018-04-23T01:39:23.531Z,6.90
2018-04-23T01:40:23.769Z,6.20
2018-04-23T01:41:24.013Z,6.30
2018-04-23T01:42:24.255Z,6.70
2018-04-23T01:43:24.498Z,6.20
2018-04-23T01:44:24.745Z,6.20
2018-04-23T01:45:24.987Z,6.00
2018-04-23T01:46:25.229Z,5.80
2018-04-23T01:47:25.474Z,6.80
2018-04-23T01:48:25.718Z,6.50
2018-04-23T01:49:25.961Z,5.70
2018-04-23T01:50:26.204Z,6.00
2018-04-23T01:51:26.448Z,5.80
2018-04-23T01:52:26.692Z,5.30
2018-04-23T01:53:26.939Z,6.20
2018-04-23T01:54:27.182Z,5.80
2018-04-23T01:55:27.425Z,6.10
2018-04-23T01:56:27.670Z,6.00
2018-04-23T01:57:27.914Z,6.60
2018-04-23T01:58:28.162Z,6.10
2018-04-23T01:59:28.401Z,6.00
2018-04-23T02:00:28.644Z,6.90
2018-04-23T02:01:28.886Z,6.50
2018-04-23T02:02:29.130Z,6.60
2018-04-23T02:03:29.374Z,7.00
2018-04-23T02:04:29.617Z,6.50
2018-04-23T02:05:29.860Z,6.70
2018-04-23T02:06:30.105Z,7.10
2018-04-23T02:07:30.348Z,6.60
2018-04-23T02:08:30.595Z,6.90
2018-04-23T02:09:30.834Z,6.70
2018-04-23T02:10:31.080Z,6.80
2018-04-23T02:11:31.322Z,7.00
2018-04-23T02:12:31.568Z,7.20
2018-04-23T02:13:31.812Z,6.80
2018-04-23T02:14:32.057Z,6.60
2018-04-23T02:15:32.299Z,6.20
2018-04-23T02:16:32.543Z,6.90
2018-04-23T02:17:32.786Z,6.90
2018-04-23T02:18:33.033Z,7.10
2018-04-23T02:19:33.278Z,7.40
2018-04-23T02:20:33.521Z,7.50
2018-04-23T02:21:33.763Z,6.90
2018-04-23T02:22:34.006Z,7.00
2018-04-23T02:23:34.249Z,7.30
2018-04-23T02:24:34.497Z,7.30
2018-04-23T02:25:34.737Z,7.10
2018-04-23T02:26:34.981Z,6.80
2018-04-23T02:27:35.229Z,7.00
2018-04-23T02:28:35.471Z,7.80
2018-04-23T02:29:35.717Z,7.30
2018-04-23T02:30:35.963Z,7.80
2018-04-23T02:31:36.204Z,7.50
2018-04-23T02:32:36.447Z,7.00
2018-04-23T02:33:36.691Z,7.00
2018-04-23T02:34:36.935Z,7.40
2018-04-23T02:35:37.178Z,7.70
2018-04-23T02:36:37.422Z,6.90
2018-04-23T02:37:37.667Z,7.30
2018-04-23T02:38:37.914Z,7.40
2018-04-23T02:39:38.150Z,7.60
2018-04-23T02:40:38.397Z,7.60
2018-04-23T02:41:38.646Z,8.30
2018-04-23T02:42:38.888Z,7.50
2018-04-23T02:43:39.127Z,8.00
2018-04-23T02:44:39.375Z,7.60
2018-04-23T02:45:39.618Z,6.90
2018-04-23T02:46:39.864Z,7.90
2018-04-23T02:47:40.104Z,7.50
2018-04-23T02:48:40.351Z,7.50
2018-04-23T02:49:40.593Z,7.60
2018-04-23T02:50:40.836Z,7.80
2018-04-23T02:51:41.083Z,7.40
2018-04-23T02:52:41.325Z,7.70
2018-04-23T02:53:41.571Z,8.30
2018-04-23T02:54:41.816Z,7.50
2018-04-23T02:55:42.058Z,7.20
2018-04-23T02:56:42.302Z,6.90
2018-04-23T02:57:42.546Z,7.70
2018-04-23T02:58:42.867Z,7.30
2018-04-23T02:59:43.037Z,7.40
2018-04-23T03:00:43.276Z,6.80
2018-04-23T03:01:43.518Z,7.20
2018-04-23T03:02:43.786Z,6.50
2018-04-23T03:03:44.008Z,7.40
2018-04-23T03:04:44.250Z,6.70
2018-04-23T03:05:44.493Z,7.10
2018-04-23T03:06:44.739Z,6.80
2018-04-23T03:07:45.045Z,6.50
2018-04-23T03:08:45.227Z,7.30
2018-04-23T03:09:45.473Z,6.80
2018-04-23T03:10:45.716Z,6.10
2018-04-23T03:11:45.959Z,6.80
2018-04-23T03:12:46.205Z,6.50
2018-04-23T03:13:46.448Z,6.40
2018-04-23T03:14:46.692Z,7.00
2018-04-23T03:15:46.940Z,6.80
2018-04-23T03:16:47.179Z,6.20
2018-04-23T03:17:47.424Z,6.40
2018-04-23T03:18:47.670Z,6.70
2018-04-23T03:19:47.966Z,6.90
2018-04-23T03:20:48.157Z,7.30
2018-04-23T03:21:48.400Z,7.10
2018-04-23T03:22:48.643Z,7.50
2018-04-23T03:23:48.885Z,7.60
2018-04-23T03:24:49.133Z,7.10
2018-04-23T03:25:49.374Z,7.70
2018-04-23T03:26:49.619Z,7.90
2018-04-23T03:27:49.861Z,7.50
2018-04-23T03:28:50.104Z,7.70
2018-04-23T03:29:50.348Z,7.50
2018-04-23T03:30:50.591Z,6.80
2018-04-23T03:31:50.836Z,7.80
2018-04-23T03:32:51.119Z,7.50
2018-04-23T03:33:51.324Z,7.60
2018-04-23T03:34:51.571Z,7.60
2018-04-23T03:35:51.812Z,7.80
2018-04-23T03:36:52.056Z,7.30
2018-04-23T03:37:52.300Z,7.10
2018-04-23T03:38:52.541Z,7.20
2018-04-23T03:39:52.786Z,7.70
2018-04-23T03:40:53.031Z,7.10
2018-04-23T03:41:53.274Z,7.80
2018-04-23T03:42:53.519Z,7.00
2018-04-23T03:43:53.763Z,7.90
2018-04-23T03:44:54.006Z,8.10
2018-04-23T03:45:54.252Z,7.80
2018-04-23T03:46:54.494Z,7.80
2018-04-23T03:47:54.737Z,7.90
2018-04-23T03:48:54.984Z,7.70
2018-04-23T03:49:55.227Z,7.30
2018-04-23T03:50:55.468Z,8.00
2018-04-23T03:51:55.716Z,8.50
2018-04-23T03:52:55.957Z,8.80
2018-04-23T03:53:56.199Z,8.90
2018-04-23T03:54:56.446Z,9.00
2018-04-23T03:55:56.689Z,9.10
2018-04-23T03:56:56.932Z,9.80
2018-04-23T03:57:57.176Z,9.40
2018-04-23T03:58:57.422Z,9.70
2018-04-23T03:59:57.666Z,9.40
2018-04-23T04:00:57.910Z,9.10
2018-04-23T04:01:58.155Z,9.50
2018-04-23T04:02:58.399Z,8.30
2018-04-23T04:03:58.641Z,9.30
2018-04-23T04:04:58.886Z,8.90
2018-04-23T04:05:59.132Z,9.70
2018-04-23T04:06:59.374Z,8.80
2018-04-23T04:07:59.618Z,9.30
2018-04-23T04:08:59.862Z,9.60
2018-04-23T04:10:00.105Z,9.90
2018-04-23T04:11:00.349Z,9.40
2018-04-23T04:12:00.593Z,10.40
2018-04-23T04:13:00.836Z,9.80
2018-04-23T04:14:01.082Z,9.10
2018-04-23T04:15:01.325Z,10.30
2018-04-23T04:16:01.570Z,9.20
2018-04-23T04:17:01.812Z,9.70
2018-04-23T04:18:02.054Z,10.20
2018-04-23T04:19:02.299Z,9.40
2018-04-23T04:20:02.545Z,9.90
2018-04-23T04:21:02.785Z,10.70
2018-04-23T04:22:03.027Z,10.00
2018-04-23T04:23:03.272Z,10.00
2018-04-23T04:24:03.516Z,9.90
2018-04-23T04:25:03.758Z,10.00
2018-04-23T04:26:04.002Z,10.30
2018-04-23T04:27:04.248Z,9.90
2018-04-23T04:28:04.486Z,9.80
2018-04-23T04:29:04.728Z,10.40
2018-04-23T04:30:04.973Z,11.30
2018-04-23T04:31:05.219Z,10.50
2018-04-23T04:32:05.461Z,10.50
2018-04-23T04:33:05.704Z,10.60
2018-04-23T04:34:05.947Z,10.50
2018-04-23T04:35:06.195Z,11.40
2018-04-23T04:36:06.454Z,11.30
2018-04-23T04:37:06.679Z,11.00
2018-04-23T04:38:06.927Z,10.90
2018-04-23T04:39:07.168Z,11.40
2018-04-23T04:40:07.416Z,10.40
2018-04-23T04:41:07.659Z,10.90
2018-04-23T04:42:07.905Z,10.70
2018-04-23T04:43:08.151Z,9.60
2018-04-23T04:44:08.396Z,10.70
2018-04-23T04:45:08.640Z,9.80
2018-04-23T04:46:08.885Z,10.80
2018-04-23T04:47:09.208Z,9.60
2018-04-23T04:48:09.458Z,10.20
2018-04-23T04:49:09.700Z,10.10
2018-04-23T04:50:09.939Z,10.40
2018-04-23T04:51:10.188Z,10.40
2018-04-23T04:52:10.430Z,9.60
2018-04-23T04:53:10.680Z,10.10
2018-04-23T04:54:10.940Z,11.10
2018-04-23T04:55:11.159Z,11.80
2018-04-23T04:56:11.406Z,10.00
2018-04-23T04:57:11.644Z,10.20
2018-04-23T04:58:11.890Z,10.60
2018-04-23T04:59:12.132Z,10.70
2018-04-23T05:00:12.379Z,10.30
2018-04-23T05:01:12.620Z,11.30
2018-04-23T05:02:12.865Z,9.90
2018-04-23T05:03:13.110Z,11.20
2018-04-23T05:04:13.352Z,10.30
2018-04-23T05:05:13.596Z,10.30
2018-04-23T05:06:13.839Z,10.60
2018-04-23T05:07:14.087Z,10.20
2018-04-23T05:08:14.327Z,10.60
2018-04-23T05:09:14.572Z,10.60
2018-04-23T05:10:14.817Z,11.20
2018-04-23T05:11:15.057Z,11.40
2018-04-23T05:12:15.301Z,11.10
2018-04-23T05:13:15.544Z,10.40
2018-04-23T05:14:15.790Z,10.40
2018-04-23T05:15:16.032Z,11.00
2018-04-23T05:16:16.277Z,11.40
2018-04-23T05:17:16.529Z,10.20
2018-04-23T05:18:16.767Z,11.00
2018-04-23T05:19:17.011Z,10.60
2018-04-23T05:20:17.253Z,11.00
2018-04-23T05:21:17.502Z,10.90
2018-04-23T05:22:17.747Z,10.80
2018-04-23T05:23:17.993Z,11.00
2018-04-23T05:24:18.231Z,11.60
2018-04-23T05:25:18.473Z,10.80
2018-04-23T05:26:18.721Z,10.10
2018-04-23T05:27:18.962Z,11.30
2018-04-23T05:28:19.211Z,11.40
2018-04-23T05:29:19.456Z,11.70
2018-04-23T05:30:19.699Z,10.50
2018-04-23T05:31:19.942Z,11.00
2018-04-23T05:32:20.187Z,11.60
2018-04-23T05:33:20.430Z,11.10
2018-04-23T05:34:20.677Z,10.80
2018-04-23T05:35:20.919Z,10.50
2018-04-23T05:36:21.164Z,11.40
2018-04-23T05:37:21.413Z,10.70
2018-04-23T05:38:21.656Z,10.50
2018-04-23T05:39:21.904Z,11.30
2018-04-23T05:40:22.149Z,10.60
2018-04-23T05:41:22.394Z,10.60
2018-04-23T05:42:22.640Z,10.50
2018-04-23T05:43:22.926Z,10.60
2018-04-23T05:44:23.197Z,10.50
2018-04-23T05:45:23.436Z,9.90
2018-04-23T05:46:23.672Z,10.60
2018-04-23T05:47:23.919Z,10.90
2018-04-23T05:48:24.164Z,10.80
2018-04-23T05:49:24.407Z,11.10
2018-04-23T05:50:24.652Z,10.10
2018-04-23T05:51:24.894Z,10.40
2018-04-23T05:52:25.141Z,10.50
2018-04-23T05:53:25.381Z,10.60
2018-04-23T05:54:25.626Z,10.40
2018-04-23T05:55:25.869Z,10.80
2018-04-23T05:56:26.112Z,10.40
2018-04-23T05:57:26.356Z,10.20
2018-04-23T05:58:26.600Z,10.10
2018-04-23T05:59:26.846Z,10.10
2018-04-23T06:00:27.090Z,9.90
2018-04-23T06:01:27.334Z,10.30
2018-04-23T06:02:27.579Z,10.30
2018-04-23T06:03:27.821Z,10.10
2018-04-23T06:04:28.066Z,10.30
2018-04-23T06:05:28.312Z,10.60
2018-04-23T06:06:28.554Z,10.30
2018-04-23T06:07:28.802Z,9.50
2018-04-23T06:08:29.047Z,8.80
2018-04-23T06:09:29.291Z,9.70
2018-04-23T06:10:29.536Z,10.00
2018-04-23T06:11:29.780Z,10.20
2018-04-23T06:12:30.027Z,10.10
2018-04-23T06:13:30.272Z,9.50
2018-04-23T06:14:30.515Z,10.10
2018-04-23T06:15:30.757Z,10.00
2018-04-23T06:16:31.005Z,10.30
2018-04-23T06:17:31.247Z,10.50
2018-04-23T06:18:31.489Z,9.20
2018-04-23T06:19:31.735Z,10.00
2018-04-23T06:20:31.978Z,9.30
2018-04-23T06:21:32.220Z,10.40
2018-04-23T06:22:32.466Z,10.40
2018-04-23T06:23:32.708Z,10.40
2018-04-23T06:24:32.952Z,10.30
2018-04-23T06:25:33.197Z,10.80
2018-04-23T06:26:33.441Z,10.10
2018-04-23T06:27:33.687Z,11.00
2018-04-23T06:28:33.932Z,10.50
2018-04-23T06:29:34.175Z,11.10
2018-04-23T06:30:34.420Z,9.70
2018-04-23T06:31:34.662Z,10.20
2018-04-23T06:32:34.909Z,10.10
2018-04-23T06:33:35.152Z,10.40
2018-04-23T06:34:35.399Z,10.10
2018-04-23T06:35:35.648Z,11.10
2018-04-23T06:36:35.890Z,9.80
2018-04-23T06:37:36.136Z,9.70
2018-04-23T06:38:36.383Z,9.80
2018-04-23T06:39:36.628Z,9.90
2018-04-23T06:40:36.874Z,10.10
2018-04-23T06:41:37.117Z,9.30
2018-04-23T06:42:37.362Z,10.10
2018-04-23T06:43:37.608Z,10.40
2018-04-23T06:44:38.160Z,9.80
2018-04-23T06:45:38.179Z,9.60
2018-04-23T06:46:38.422Z,9.60
2018-04-23T06:47:38.669Z,10.30
2018-04-23T06:48:38.914Z,9.60
2018-04-23T06:49:39.164Z,9.80
2018-04-23T06:50:39.406Z,9.20
2018-04-23T06:51:39.648Z,8.60
2018-04-23T06:52:39.893Z,8.80
2018-04-23T06:53:40.140Z,9.40
2018-04-23T06:54:40.383Z,10.00
2018-04-23T06:55:40.628Z,9.40
2018-04-23T06:56:40.872Z,9.20
2018-04-23T06:57:41.117Z,8.90
2018-04-23T06:58:41.363Z,9.50
2018-04-23T06:59:41.605Z,9.00
2018-04-23T07:00:41.849Z,9.30
2018-04-23T07:01:42.097Z,9.80
2018-04-23T07:02:42.343Z,9.30
2018-04-23T07:03:42.588Z,8.50
2018-04-23T07:04:42.840Z,9.10
2018-04-23T07:05:43.077Z,9.60
2018-04-23T07:06:43.322Z,8.50
2018-04-23T07:07:43.567Z,9.10
2018-04-23T07:08:43.815Z,9.40
2018-04-23T07:09:44.055Z,8.90
2018-04-23T07:10:44.300Z,8.70
2018-04-23T07:11:44.545Z,9.20
2018-04-23T07:12:44.789Z,9.00
2018-04-23T07:13:45.032Z,8.70
2018-04-23T07:14:45.279Z,8.10
2018-04-23T07:15:45.527Z,9.50
2018-04-23T07:16:45.770Z,8.80
2018-04-23T07:17:46.015Z,8.40
2018-04-23T07:18:46.260Z,7.80
2018-04-23T07:19:46.503Z,8.50
2018-04-23T07:20:46.749Z,9.20
2018-04-23T07:21:46.995Z,8.40
2018-04-23T07:22:47.240Z,8.70
2018-04-23T07:23:47.488Z,9.10
2018-04-23T07:24:47.733Z,9.10
2018-04-23T07:25:47.977Z,8.50
2018-04-23T07:26:48.225Z,8.60
2018-04-23T07:27:48.473Z,8.80
2018-04-23T07:28:48.719Z,9.10
2018-04-23T07:29:48.965Z,8.30
2018-04-23T07:30:49.210Z,8.10
2018-04-23T07:31:49.456Z,8.00
2018-04-23T07:32:49.700Z,7.40
2018-04-23T07:33:49.947Z,7.90
2018-04-23T07:34:50.197Z,8.50
2018-04-23T07:35:50.441Z,7.80
2018-04-23T07:36:50.688Z,7.10
2018-04-23T07:37:50.938Z,7.90
2018-04-23T07:38:51.184Z,7.00
2018-04-23T07:39:51.432Z,6.70
2018-04-23T07:40:51.679Z,6.60
2018-04-23T07:41:51.930Z,7.10
2018-04-23T07:42:52.178Z,6.00
2018-04-23T07:43:52.427Z,6.20
2018-04-23T07:44:52.674Z,5.80
2018-04-23T07:45:52.924Z,6.20
2018-04-23T07:46:53.175Z,5.80
2018-04-23T07:47:53.461Z,6.30
2018-04-23T07:48:53.671Z,6.50
2018-04-23T07:49:53.921Z,5.90
2018-04-23T07:50:54.169Z,5.70
2018-04-23T07:51:54.418Z,5.90
2018-04-23T07:52:54.669Z,5.90
2018-04-23T07:53:54.916Z,6.20
2018-04-23T07:55:55.414Z,5.90
2018-04-23T07:56:55.663Z,5.40
2018-04-23T07:57:55.914Z,6.10
2018-04-23T07:58:56.162Z,5.70
2018-04-23T07:59:56.426Z,6.10
2018-04-23T08:00:56.708Z,5.90
2018-04-23T08:01:56.953Z,5.60
2018-04-23T08:02:57.201Z,5.60
2018-04-23T08:03:57.449Z,6.50
2018-04-23T08:04:57.699Z,5.70
2018-04-23T08:05:57.979Z,6.30
2018-04-23T08:06:58.197Z,5.70
2018-04-23T08:07:58.444Z,5.80
2018-04-23T08:08:58.699Z,6.20
2018-04-23T08:09:58.938Z,6.20
2018-04-23T08:10:59.191Z,5.60
2018-04-23T08:11:59.435Z,6.20
2018-04-23T08:12:59.684Z,5.90
2018-04-23T08:13:59.933Z,6.40
2018-04-23T08:15:00.181Z,6.10
2018-04-23T08:16:00.429Z,5.90
2018-04-23T08:17:00.676Z,6.20
2018-04-23T08:18:00.923Z,5.50
2018-04-23T08:19:01.173Z,6.50
2018-04-23T08:20:01.444Z,5.30
2018-04-23T08:21:01.670Z,6.40
2018-04-23T08:22:01.918Z,6.20
2018-04-23T08:23:02.168Z,5.80
2018-04-23T08:24:02.416Z,6.30
2018-04-23T08:25:02.663Z,6.40
2018-04-23T08:26:02.909Z,6.60
2018-04-23T08:27:03.157Z,6.80
2018-04-23T08:28:03.410Z,5.90
2018-04-23T08:29:03.654Z,6.00
2018-04-23T08:30:03.903Z,5.80
2018-04-23T08:31:04.153Z,6.50
2018-04-23T08:32:04.399Z,6.30
2018-04-23T08:33:04.648Z,6.20
2018-04-23T08:34:04.896Z,6.80
2018-04-23T08:35:05.143Z,6.80
2018-04-23T08:36:05.397Z,6.80
2018-04-23T08:37:05.636Z,6.40
2018-04-23T08:38:05.882Z,6.40
2018-04-23T08:39:06.128Z,6.70
2018-04-23T08:40:06.373Z,6.40
2018-04-23T08:41:06.624Z,7.20
2018-04-23T08:42:06.873Z,6.60
2018-04-23T08:43:07.121Z,6.50
2018-04-23T08:44:07.372Z,6.60
2018-04-23T08:45:09.158Z,6.70
2018-04-23T08:46:07.867Z,6.40
2018-04-23T08:47:08.115Z,6.40
2018-04-23T08:48:08.365Z,5.50
2018-04-23T08:49:08.605Z,6.20
2018-04-23T08:50:08.852Z,5.70
2018-04-23T08:51:09.100Z,6.40
2018-04-23T08:52:09.349Z,6.40
2018-04-23T08:53:09.598Z,7.00
2018-04-23T08:54:09.842Z,6.50
2018-04-23T08:55:10.090Z,6.30
2018-04-23T08:56:10.336Z,7.10
2018-04-23T08:57:10.581Z,7.10
2018-04-23T08:58:10.828Z,6.40
2018-04-23T08:59:11.074Z,7.00
2018-04-23T09:00:11.322Z,6.50
2018-04-23T09:01:11.565Z,5.80
2018-04-23T09:02:11.817Z,6.00
2018-04-23T09:03:12.063Z,5.60
2018-04-23T09:04:12.312Z,6.00
2018-04-23T09:05:12.568Z,5.50
2018-04-23T09:06:12.815Z,6.30
2018-04-23T09:07:13.062Z,6.20
2018-04-23T09:08:13.308Z,6.20
2018-04-23T09:09:13.556Z,6.20
2018-04-23T09:10:13.804Z,6.40
2018-04-23T09:11:14.053Z,5.80
2018-04-23T09:12:14.298Z,6.40
2018-04-23T09:13:14.545Z,7.00
2018-04-23T09:14:14.792Z,6.80
2018-04-23T09:15:15.040Z,5.90
2018-04-23T09:16:15.287Z,6.00
2018-04-23T09:17:15.532Z,6.00
2018-04-23T09:18:15.778Z,6.00
2018-04-23T09:19:16.026Z,6.60
2018-04-23T09:20:16.267Z,5.90
2018-04-23T09:21:16.529Z,5.50
2018-04-23T09:22:16.777Z,5.40
2018-04-23T09:23:17.024Z,5.70
2018-04-23T09:24:17.269Z,4.90
2018-04-23T09:25:17.518Z,4.90
2018-04-23T09:26:17.769Z,5.20
2018-04-23T09:27:18.010Z,5.40
2018-04-23T09:28:18.258Z,5.20
2018-04-23T09:29:18.507Z,4.90
2018-04-23T09:30:18.755Z,4.30
2018-04-23T09:31:19.002Z,4.70
2018-04-23T09:32:19.251Z,4.20
2018-04-23T09:33:19.501Z,4.70
2018-04-23T09:34:19.750Z,5.10
2018-04-23T09:35:19.999Z,5.10
2018-04-23T09:36:20.249Z,4.80
2018-04-23T09:37:20.498Z,5.10
2018-04-23T09:38:20.745Z,4.60
2018-04-23T09:39:20.996Z,4.90
2018-04-23T09:40:21.243Z,4.50
2018-04-23T09:41:21.491Z,4.60
2018-04-23T09:42:21.741Z,4.60
2018-04-23T09:43:21.991Z,5.20
2018-04-23T09:44:22.285Z,4.80
2018-04-23T09:45:22.491Z,4.90
2018-04-23T09:46:22.743Z,4.30
2018-04-23T09:47:22.992Z,4.70
2018-04-23T09:48:23.242Z,4.70
2018-04-23T09:49:23.496Z,4.60
2018-04-23T09:50:23.746Z,4.50
2018-04-23T09:51:23.994Z,4.60
2018-04-23T09:52:24.246Z,4.70
2018-04-23T09:53:24.497Z,4.20
2018-04-23T09:54:24.752Z,4.50
2018-04-23T09:55:25.001Z,4.50
2018-04-23T09:56:25.252Z,4.40
2018-04-23T09:57:25.501Z,4.70
2018-04-23T09:58:25.756Z,4.60
2018-04-23T09:59:26.011Z,4.80
2018-04-23T10:00:26.260Z,4.50
2018-04-23T10:01:26.515Z,5.00
2018-04-23T10:02:26.765Z,4.50
2018-04-23T10:03:27.020Z,5.00
2018-04-23T10:04:27.271Z,5.00
2018-04-23T10:05:27.522Z,4.80
2018-04-23T10:06:27.776Z,4.20
2018-04-23T10:07:28.029Z,4.50
2018-04-23T10:08:28.280Z,5.00
2018-04-23T10:09:28.532Z,5.00
2018-04-23T10:10:28.786Z,5.20
2018-04-23T10:11:29.037Z,4.60
2018-04-23T10:12:29.292Z,4.40
2018-04-23T10:13:29.542Z,5.10
2018-04-23T10:14:29.795Z,5.60
2018-04-23T10:15:30.049Z,5.20
2018-04-23T10:16:30.304Z,5.10
2018-04-23T10:17:30.556Z,5.20
2018-04-23T10:18:30.809Z,5.20
2018-04-23T10:19:31.064Z,5.30
2018-04-23T10:20:31.317Z,4.30
2018-04-23T10:21:31.589Z,4.60
2018-04-23T10:22:31.835Z,4.50
2018-04-23T10:23:32.091Z,5.20
2018-04-23T10:24:32.343Z,4.90
2018-04-23T10:25:32.595Z,4.70
2018-04-23T10:26:32.850Z,4.90
2018-04-23T10:27:33.106Z,5.80
2018-04-23T10:28:33.354Z,5.50
2018-04-23T10:29:33.608Z,5.00
2018-04-23T10:30:33.861Z,5.10
2018-04-23T10:31:34.144Z,5.00
2018-04-23T10:32:34.423Z,4.90
2018-04-23T10:33:34.678Z,4.90
2018-04-23T10:34:34.983Z,5.10
2018-04-23T10:35:35.235Z,4.50
2018-04-23T10:36:35.490Z,4.80
2018-04-23T10:37:35.771Z,4.80
2018-04-23T10:38:36.054Z,4.70
2018-04-23T10:39:36.314Z,5.30
2018-04-23T10:40:36.560Z,5.40
2018-04-23T10:41:36.818Z,4.80
2018-04-23T10:42:37.102Z,5.40
2018-04-23T10:43:37.355Z,5.20
2018-04-23T10:44:37.609Z,5.90
2018-04-23T10:45:37.861Z,5.50
2018-04-23T10:46:38.117Z,5.20
2018-04-23T10:47:38.404Z,5.00
2018-04-23T10:48:38.670Z,5.40
2018-04-23T10:49:38.927Z,5.10
2018-04-23T10:50:39.174Z,5.20
2018-04-23T10:51:39.435Z,4.70
2018-04-23T10:52:39.693Z,4.60
2018-04-23T10:53:39.959Z,4.40
2018-04-23T10:54:40.220Z,4.60
2018-04-23T10:55:40.474Z,4.40
2018-04-23T10:56:40.737Z,5.30
2018-04-23T10:57:40.990Z,4.50
2018-04-23T10:58:41.300Z,5.50
2018-04-23T10:59:41.557Z,5.40
2018-04-23T11:00:41.868Z,4.90
2018-04-23T11:01:42.126Z,5.60
2018-04-23T11:02:42.383Z,4.80
2018-04-23T11:03:42.639Z,4.90
2018-04-23T11:04:42.896Z,5.10
2018-04-23T11:05:43.151Z,4.90
2018-04-23T11:06:43.408Z,4.90
2018-04-23T11:07:43.662Z,4.50
2018-04-23T11:08:43.917Z,5.30
2018-04-23T11:09:44.197Z,4.70
2018-04-23T11:10:44.428Z,4.80
2018-04-23T11:11:44.682Z,4.90
2018-04-23T11:12:44.938Z,4.70
2018-04-23T11:13:45.191Z,5.20
2018-04-23T11:14:45.451Z,5.40
2018-04-23T11:15:45.745Z,5.10
2018-04-23T11:16:45.955Z,5.50
2018-04-23T11:17:46.209Z,5.40
2018-04-23T11:18:46.463Z,4.80
2018-04-23T11:19:46.719Z,4.60
2018-04-23T11:20:46.968Z,5.40
2018-04-23T11:21:47.219Z,5.60
2018-04-23T11:22:47.474Z,5.70
2018-04-23T11:23:47.726Z,5.80
2018-04-23T11:24:48.005Z,5.40
2018-04-23T11:25:48.230Z,5.40
2018-04-23T11:26:48.480Z,5.90
2018-04-23T11:27:48.734Z,5.30
2018-04-23T11:28:48.987Z,5.20
2018-04-23T11:29:49.237Z,5.30
2018-04-23T11:30:49.490Z,5.00
2018-04-23T11:31:49.740Z,5.20
2018-04-23T11:32:49.994Z,5.00
2018-04-23T11:33:50.245Z,4.80
2018-04-23T11:34:50.496Z,5.30
2018-04-23T11:35:50.752Z,5.40
2018-04-23T11:36:50.998Z,5.80
2018-04-23T11:37:51.249Z,5.30
2018-04-23T11:38:51.499Z,16.00
2018-04-23T11:39:51.750Z,7.10
2018-04-23T11:40:52.001Z,11.10
2018-04-23T11:41:52.252Z,5.40
2018-04-23T11:42:52.501Z,7.00
2018-04-23T11:43:52.750Z,6.30
2018-04-23T11:44:53.001Z,6.90
2018-04-23T11:45:53.254Z,6.60
2018-04-23T11:46:53.507Z,7.00
2018-04-23T11:47:53.979Z,6.50
2018-04-23T11:48:54.020Z,7.00
2018-04-23T11:49:54.273Z,7.00
2018-04-23T11:50:54.549Z,7.90
2018-04-23T11:51:54.777Z,8.60
2018-04-23T11:52:55.025Z,8.50
2018-04-23T11:53:55.275Z,10.30
2018-04-23T11:54:55.578Z,9.60
2018-04-23T11:55:55.827Z,10.70
2018-04-23T11:56:56.079Z,9.60
2018-04-23T11:57:56.333Z,9.20
2018-04-23T11:58:56.580Z,8.70
2018-04-23T11:59:56.827Z,8.30
2018-04-23T12:00:57.075Z,8.20
2018-04-23T12:01:57.323Z,7.90
2018-04-23T12:02:57.571Z,7.00
2018-04-23T12:03:57.822Z,7.10
2018-04-23T12:04:58.069Z,6.80
2018-04-23T12:05:58.317Z,6.40
2018-04-23T12:06:58.567Z,6.30
2018-04-23T12:07:58.816Z,6.70
2018-04-23T12:08:59.065Z,7.20
2018-04-23T12:09:59.316Z,7.20
2018-04-23T12:10:59.598Z,6.60
2018-04-23T12:11:59.849Z,6.20
2018-04-23T12:13:00.099Z,7.10
2018-04-23T12:14:00.352Z,6.80
2018-04-23T12:15:00.604Z,6.10
2018-04-23T12:16:00.861Z,5.70
2018-04-23T12:17:01.109Z,5.50
2018-04-23T12:18:01.360Z,5.10
2018-04-23T12:19:01.615Z,5.30
2018-04-23T12:20:01.868Z,5.60
2018-04-23T12:21:02.120Z,5.50
2018-04-23T12:22:02.372Z,5.80
2018-04-23T12:23:02.628Z,5.00
2018-04-23T12:24:02.877Z,5.40
2018-04-23T12:25:03.129Z,5.00
2018-04-23T12:26:03.380Z,5.70
2018-04-23T12:27:03.632Z,5.10
2018-04-23T12:28:03.881Z,5.30
2018-04-23T12:29:04.135Z,4.60
2018-04-23T12:30:04.390Z,4.30
2018-04-23T12:31:04.643Z,4.20
2018-04-23T12:32:04.894Z,4.60
2018-04-23T12:33:05.148Z,4.70
2018-04-23T12:34:05.399Z,4.90
2018-04-23T12:35:05.654Z,4.80
2018-04-23T12:36:05.908Z,4.40
2018-04-23T12:37:06.159Z,4.00
2018-04-23T12:38:06.413Z,4.80
2018-04-23T12:39:06.670Z,4.40
2018-04-23T12:40:06.922Z,4.40
2018-04-23T12:41:07.178Z,4.50
2018-04-23T12:42:07.431Z,4.10
2018-04-23T12:43:07.688Z,3.80
2018-04-23T12:44:07.943Z,3.40
2018-04-23T12:45:08.197Z,3.30
2018-04-23T12:46:08.484Z,3.70
2018-04-23T12:47:08.706Z,3.60
2018-04-23T12:48:08.960Z,3.50
2018-04-23T12:49:09.214Z,4.00
2018-04-23T12:50:09.468Z,3.60
2018-04-23T12:51:09.726Z,3.40
2018-04-23T12:52:09.978Z,3.40
2018-04-23T12:53:10.235Z,3.20
2018-04-23T12:54:10.483Z,3.30
2018-04-23T12:55:10.741Z,3.30
2018-04-23T12:56:10.995Z,3.40
2018-04-23T12:57:11.246Z,4.10
2018-04-23T12:58:11.500Z,3.80
2018-04-23T12:59:11.754Z,3.70
2018-04-23T13:00:12.004Z,4.10
2018-04-23T13:01:12.258Z,4.50
2018-04-23T13:02:12.511Z,4.40
2018-04-23T13:03:12.761Z,4.70
2018-04-23T13:04:13.017Z,4.70
2018-04-23T13:05:13.272Z,4.10
2018-04-23T13:06:13.522Z,4.60
2018-04-23T13:07:13.774Z,4.00
2018-04-23T13:08:14.062Z,4.70
2018-04-23T13:09:14.314Z,4.70
2018-04-23T13:10:14.567Z,4.40
2018-04-23T13:11:14.816Z,4.00
2018-04-23T13:12:15.105Z,3.90
2018-04-23T13:13:15.315Z,4.10
2018-04-23T13:14:15.568Z,4.00
2018-04-23T13:15:15.817Z,4.00
2018-04-23T13:16:16.065Z,3.80
2018-04-23T13:17:16.317Z,3.60
2018-04-23T13:18:16.571Z,3.10
2018-04-23T13:19:16.822Z,3.20